Time;durP1;ratioP1;P1;durP2;ratioP2;P2;SDS_P1;SDS_P2;PMS_P1;PMS_P2;Temp;Humidity;BMP_temperature;BMP_pressure;BME280_temperature;BME280_humidity;BME280_pressure;Samples;Min_cycle;Max_cycle;Signal;HPM_P1;HPM_P2
2023/05/12 00:01:41;;;;;;;66.55;53.30;;;12.00;91.30;;;;;;4984240;28;20046;-85
2023/05/12 00:04:07;;;;;;;69.20;54.83;;;12.10;91.30;;;;;;5001916;28;20024;-82
2023/05/12 00:06:32;;;;;;;66.72;53.55;;;12.10;91.30;;;;;;4983117;28;20081;-83
2023/05/12 00:08:58;;;;;;;65.55;53.53;;;12.10;91.30;;;;;;4996143;28;20026;-83
2023/05/12 00:11:25;;;;;;;71.32;55.05;;;12.10;91.40;;;;;;4984505;28;20039;-83
2023/05/12 00:13:50;;;;;;;71.43;52.22;;;12.10;91.40;;;;;;4983428;28;20030;-83
2023/05/12 00:16:17;;;;;;;67.20;51.08;;;12.10;91.50;;;;;;4982901;28;20063;-84
2023/05/12 00:18:44;;;;;;;67.28;51.30;;;12.10;91.50;;;;;;4999539;28;20145;-84
2023/05/12 00:21:11;;;;;;;69.78;50.50;;;12.20;91.60;;;;;;4981838;28;20482;-83
2023/05/12 00:23:37;;;;;;;66.95;49.63;;;12.20;91.60;;;;;;4978012;28;20557;-83
2023/05/12 00:26:03;;;;;;;68.68;49.40;;;12.20;91.70;;;;;;4983220;28;20034;-83
2023/05/12 00:28:29;;;;;;;73.57;51.53;;;12.10;91.70;;;;;;4999741;28;20034;-85
2023/05/12 00:30:59;;;;;;;72.82;49.75;;;12.20;91.80;;;;;;4981295;28;20030;-83
2023/05/12 00:33:25;;;;;;;71.30;49.47;;;12.20;92.00;;;;;;4999619;28;20042;-83
2023/05/12 00:35:51;;;;;;;74.50;50.20;;;12.20;92.10;;;;;;4993722;28;20350;-83
2023/05/12 00:38:17;;;;;;;73.88;49.53;;;12.20;92.20;;;;;;4982075;28;20108;-84
2023/05/12 00:40:43;;;;;;;72.00;48.35;;;12.20;92.30;;;;;;4995144;28;20033;-84
2023/05/12 00:43:08;;;;;;;77.75;50.38;;;12.30;92.40;;;;;;4994563;28;20117;-84
2023/05/12 00:45:34;;;;;;;76.75;50.40;;;12.30;92.40;;;;;;4997689;28;20027;-84
2023/05/12 00:48:00;;;;;;;79.93;50.45;;;12.30;92.50;;;;;;4999593;28;20160;-83
2023/05/12 00:50:26;;;;;;;82.82;48.90;;;12.30;92.60;;;;;;4992716;28;20061;-83
2023/05/12 00:52:52;;;;;;;75.25;47.80;;;12.30;92.70;;;;;;5000138;28;20046;-83
2023/05/12 00:55:18;;;;;;;84.40;49.20;;;12.30;92.80;;;;;;5001105;28;20034;-83
2023/05/12 00:57:44;;;;;;;82.85;50.35;;;12.30;92.90;;;;;;4977729;28;20077;-83
2023/05/12 01:00:11;;;;;;;85.00;48.58;;;12.40;92.90;;;;;;4996726;28;20050;-83
2023/05/12 01:02:36;;;;;;;89.13;52.80;;;12.40;93.00;;;;;;4983396;28;20039;-83
2023/05/12 01:05:03;;;;;;;89.18;51.28;;;12.40;93.10;;;;;;4982415;28;20037;-82
2023/05/12 01:07:31;;;;;;;84.85;48.78;;;12.40;93.10;;;;;;4981823;28;20494;-83
2023/05/12 01:09:58;;;;;;;84.88;49.97;;;12.40;93.20;;;;;;4980405;28;20505;-83
2023/05/12 01:12:24;;;;;;;88.20;48.85;;;12.40;93.30;;;;;;4982536;28;20046;-84
2023/05/12 01:14:52;;;;;;;83.95;49.15;;;12.50;93.30;;;;;;4996334;28;20029;-84
2023/05/12 01:17:30;;;;;;;87.75;51.50;;;12.50;93.30;;;;;;4982494;28;20054;-83
2023/05/12 01:19:59;;;;;;;82.38;48.65;;;12.50;93.40;;;;;;4998344;28;20077;-83
2023/05/12 01:22:27;;;;;;;84.07;49.60;;;12.50;93.30;;;;;;4996425;28;20035;-85
2023/05/12 01:24:56;;;;;;;85.60;51.22;;;12.60;93.40;;;;;;5001716;28;20034;-84
2023/05/12 01:27:24;;;;;;;84.78;48.30;;;12.60;93.40;;;;;;5001474;28;20038;-84
2023/05/12 01:29:51;;;;;;;82.68;47.80;;;12.50;93.30;;;;;;5002048;28;20565;-84
2023/05/12 01:32:18;;;;;;;75.15;46.60;;;12.50;93.20;;;;;;5000338;28;20490;-84
2023/05/12 01:34:44;;;;;;;79.47;48.30;;;12.50;93.40;;;;;;4986909;28;20467;-84
2023/05/12 01:37:10;;;;;;;80.35;47.42;;;12.50;93.30;;;;;;4986148;28;20026;-83
2023/05/12 01:39:36;;;;;;;79.68;49.20;;;12.60;93.30;;;;;;5000686;28;20095;-83
2023/05/12 01:42:03;;;;;;;80.03;47.78;;;12.60;93.30;;;;;;5001755;28;20062;-83
2023/05/12 01:44:29;;;;;;;83.45;48.72;;;12.60;93.20;;;;;;4984456;28;20031;-83
2023/05/12 01:46:55;;;;;;;79.55;47.33;;;12.50;93.20;;;;;;4981991;28;20068;-84
2023/05/12 01:49:21;;;;;;;83.63;46.95;;;12.60;93.20;;;;;;4999733;28;20570;-83
2023/05/12 01:51:46;;;;;;;78.18;47.00;;;12.60;93.20;;;;;;4999153;28;20049;-84
2023/05/12 01:54:12;;;;;;;82.53;46.10;;;12.60;93.20;;;;;;4999290;28;20133;-84
2023/05/12 01:56:38;;;;;;;79.97;46.63;;;12.60;93.20;;;;;;4989397;28;20042;-82
2023/05/12 01:59:03;;;;;;;76.78;45.58;;;12.60;93.20;;;;;;5001703;28;20034;-83
2023/05/12 02:01:31;;;;;;;82.53;45.53;;;12.60;93.30;;;;;;5003540;28;20042;-84
2023/05/12 02:03:57;;;;;;;77.20;43.92;;;12.60;93.30;;;;;;5004887;28;20030;-83
2023/05/12 02:06:23;;;;;;;79.03;47.13;;;12.60;93.40;;;;;;5007239;28;20502;-82
2023/05/12 02:08:48;;;;;;;82.38;46.13;;;12.60;93.40;;;;;;5004522;28;20018;-82
2023/05/12 02:11:15;;;;;;;76.78;45.88;;;12.60;93.40;;;;;;5010522;28;20089;-85
2023/05/12 02:13:43;;;;;;;76.13;45.78;;;12.60;93.40;;;;;;5006075;28;20025;-83
2023/05/12 02:16:09;;;;;;;79.18;44.35;;;12.60;93.40;;;;;;5004247;28;20041;-83
2023/05/12 02:18:35;;;;;;;79.05;45.08;;;12.60;93.40;;;;;;4988676;28;20026;-83
2023/05/12 02:21:01;;;;;;;78.03;42.50;;;12.60;93.40;;;;;;5004397;28;20065;-83
2023/05/12 02:23:26;;;;;;;76.60;43.75;;;12.60;93.40;;;;;;5006573;28;20057;-83
2023/05/12 02:25:52;;;;;;;80.20;45.40;;;12.60;93.30;;;;;;5005079;28;21232;-83
2023/05/12 02:28:18;;;;;;;75.75;43.40;;;12.60;93.50;;;;;;5005577;28;20508;-83
2023/05/12 02:30:47;;;;;;;76.70;44.33;;;12.60;93.40;;;;;;5003562;28;20034;-84
2023/05/12 02:33:16;;;;;;;75.93;43.80;;;12.60;93.40;;;;;;4984698;28;20041;-83
2023/05/12 02:35:42;;;;;;;72.88;43.53;;;12.60;93.40;;;;;;5000369;28;20106;-83
2023/05/12 02:38:08;;;;;;;79.40;43.70;;;12.60;93.50;;;;;;5003386;28;20135;-83
2023/05/12 02:40:34;;;;;;;75.13;43.40;;;12.60;93.50;;;;;;4984426;28;20607;-82
2023/05/12 02:43:00;;;;;;;77.63;44.25;;;12.60;93.50;;;;;;5003906;28;20034;-83
2023/05/12 02:45:25;;;;;;;73.97;42.80;;;12.60;93.40;;;;;;5001189;28;20041;-85
2023/05/12 02:47:51;;;;;;;76.32;42.83;;;12.60;93.50;;;;;;5001241;28;20589;-83
2023/05/12 02:50:17;;;;;;;77.25;43.38;;;12.60;93.50;;;;;;4986411;28;20029;-83
2023/05/12 02:52:42;;;;;;;75.88;44.33;;;12.70;93.50;;;;;;4988260;28;20462;-83
2023/05/12 02:55:08;;;;;;;76.55;45.35;;;12.60;93.50;;;;;;4986683;28;20021;-83
2023/05/12 02:57:34;;;;;;;69.13;43.25;;;12.70;93.50;;;;;;4986472;28;20034;-86
2023/05/12 03:00:05;;;;;;;73.13;41.15;;;12.70;93.50;;;;;;4986963;28;20053;-83
2023/05/12 03:02:31;;;;;;;72.15;43.25;;;12.70;93.50;;;;;;5004897;28;20588;-83
2023/05/12 03:04:56;;;;;;;74.22;42.15;;;12.70;93.50;;;;;;5004463;28;20030;-83
2023/05/12 03:07:22;;;;;;;68.85;42.60;;;12.70;93.50;;;;;;5002116;28;20038;-83
2023/05/12 03:09:48;;;;;;;73.47;42.08;;;12.70;93.50;;;;;;5004343;28;20251;-83
2023/05/12 03:12:14;;;;;;;74.18;41.25;;;12.60;93.50;;;;;;5004094;28;20025;-84
2023/05/12 03:14:40;;;;;;;65.80;41.08;;;12.70;93.60;;;;;;5002373;28;20036;-83
2023/05/12 03:17:05;;;;;;;72.75;42.35;;;12.70;93.60;;;;;;5003613;28;20026;-83
2023/05/12 03:19:31;;;;;;;70.75;39.60;;;12.70;93.60;;;;;;5004750;28;20104;-83
2023/05/12 03:21:57;;;;;;;66.43;38.78;;;12.70;93.60;;;;;;5002746;28;20069;-83
2023/05/12 03:24:23;;;;;;;72.78;40.92;;;12.70;93.60;;;;;;5003501;28;20089;-82
2023/05/12 03:26:48;;;;;;;67.55;38.70;;;12.70;93.70;;;;;;4987762;28;20030;-83
2023/05/12 03:29:14;;;;;;;68.40;38.72;;;12.70;93.70;;;;;;4990975;28;20026;-84
2023/05/12 03:31:39;;;;;;;64.05;37.60;;;12.80;93.80;;;;;;4985021;28;20401;-83
2023/05/12 03:34:05;;;;;;;67.85;38.38;;;12.70;93.80;;;;;;4986792;28;20060;-83
2023/05/12 03:36:31;;;;;;;62.30;35.53;;;12.70;93.80;;;;;;4999794;28;20383;-85
2023/05/12 03:38:56;;;;;;;57.70;34.78;;;12.70;93.80;;;;;;4985445;28;20219;-83
2023/05/12 03:41:22;;;;;;;53.05;33.13;;;12.70;93.80;;;;;;4985733;28;20312;-83
2023/05/12 03:43:48;;;;;;;53.50;31.55;;;12.70;93.80;;;;;;4986569;28;20017;-84
2023/05/12 03:46:14;;;;;;;48.47;30.42;;;12.70;93.80;;;;;;4999370;28;20038;-86
2023/05/12 03:48:40;;;;;;;45.85;28.45;;;12.60;93.60;;;;;;4985294;28;20045;-83
2023/05/12 03:51:05;;;;;;;46.58;27.55;;;12.60;93.50;;;;;;4986267;28;20034;-84
2023/05/12 03:53:31;;;;;;;40.80;26.20;;;12.60;93.40;;;;;;5001334;28;20465;-84
2023/05/12 03:55:57;;;;;;;35.25;23.92;;;12.60;93.30;;;;;;5001203;28;20439;-83
2023/05/12 03:58:23;;;;;;;34.33;22.70;;;12.60;93.10;;;;;;5001649;28;20084;-84
2023/05/12 04:00:49;;;;;;;36.40;21.00;;;12.60;93.00;;;;;;4982202;28;20042;-83
2023/05/12 04:03:18;;;;;;;31.75;20.73;;;12.50;92.80;;;;;;4983876;28;20050;-84
2023/05/12 04:05:43;;;;;;;29.95;19.50;;;12.50;92.70;;;;;;4983283;28;20031;-84
2023/05/12 04:08:09;;;;;;;29.65;18.63;;;12.40;92.40;;;;;;4982587;28;20489;-81
2023/05/12 04:10:39;;;;;;;30.63;19.50;;;12.40;92.40;;;;;;4980056;28;20045;-84
2023/05/12 04:13:05;;;;;;;31.88;20.10;;;12.40;92.40;;;;;;4997832;28;20046;-85
2023/05/12 04:15:31;;;;;;;30.42;21.10;;;12.40;92.30;;;;;;4981328;28;20052;-83
2023/05/12 04:17:56;;;;;;;36.05;20.60;;;12.40;92.30;;;;;;4980216;28;20144;-83
2023/05/12 04:20:22;;;;;;;29.92;20.10;;;12.40;92.30;;;;;;4997923;28;20026;-83
2023/05/12 04:22:50;;;;;;;33.25;21.55;;;12.40;92.30;;;;;;4982323;28;20533;-83
2023/05/12 04:25:16;;;;;;;28.65;20.02;;;12.40;92.30;;;;;;4985934;28;20022;-82
2023/05/12 04:27:41;;;;;;;31.70;21.05;;;12.40;92.20;;;;;;4997298;28;20411;-83
2023/05/12 04:30:07;;;;;;;29.48;19.80;;;12.30;92.30;;;;;;4998535;28;20023;-83
2023/05/12 04:32:33;;;;;;;29.85;19.52;;;12.30;92.30;;;;;;4982828;28;20053;-82
2023/05/12 04:34:59;;;;;;;29.17;20.40;;;12.30;92.20;;;;;;4978060;28;20019;-84
2023/05/12 04:37:27;;;;;;;29.75;20.98;;;12.40;92.20;;;;;;4991439;28;20464;-85
2023/05/12 04:39:53;;;;;;;29.80;20.70;;;12.30;92.20;;;;;;4978972;28;20026;-82
2023/05/12 04:42:18;;;;;;;30.55;21.90;;;12.40;92.30;;;;;;4983150;28;20026;-82
2023/05/12 04:44:45;;;;;;;31.95;21.15;;;12.40;92.20;;;;;;5002293;28;20031;-82
2023/05/12 04:47:11;;;;;;;31.17;22.08;;;12.30;92.20;;;;;;4985404;28;20387;-82
2023/05/12 04:49:37;;;;;;;34.42;20.90;;;12.40;92.30;;;;;;4985962;28;20040;-81
2023/05/12 04:52:04;;;;;;;29.55;20.67;;;12.30;92.40;;;;;;4995301;28;20031;-82
2023/05/12 04:54:31;;;;;;;31.67;19.48;;;12.30;92.40;;;;;;4979227;28;20045;-82
2023/05/12 04:56:56;;;;;;;29.05;17.67;;;12.30;92.30;;;;;;4973615;28;20050;-83
2023/05/12 04:59:23;;;;;;;28.88;17.67;;;12.20;92.20;;;;;;4986452;28;20040;-82
2023/05/12 05:01:49;;;;;;;31.67;18.02;;;12.20;92.40;;;;;;4999512;28;20057;-82
2023/05/12 05:04:15;;;;;;;25.23;15.63;;;12.20;92.30;;;;;;4986353;28;20032;-81
2023/05/12 05:06:41;;;;;;;22.65;14.88;;;12.20;92.20;;;;;;4990405;28;20103;-81
2023/05/12 05:09:10;;;;;;;24.77;12.55;;;12.20;91.90;;;;;;4984986;28;20105;-81
2023/05/12 05:11:36;;;;;;;19.20;11.80;;;12.10;91.60;;;;;;4982949;28;20356;-82
2023/05/12 05:14:01;;;;;;;19.80;12.70;;;12.10;91.40;;;;;;4985737;28;20043;-82
2023/05/12 05:16:27;;;;;;;18.67;12.10;;;12.10;91.20;;;;;;4986081;28;20459;-83
2023/05/12 05:18:53;;;;;;;19.05;12.15;;;12.10;91.20;;;;;;4991896;28;20527;-82
2023/05/12 05:21:18;;;;;;;19.25;10.95;;;12.10;91.00;;;;;;4979970;28;20592;-82
2023/05/12 05:23:44;;;;;;;19.38;11.10;;;12.10;91.00;;;;;;4986492;28;20026;-82
2023/05/12 05:26:10;;;;;;;20.67;11.85;;;12.10;90.90;;;;;;4986591;28;20046;-83
2023/05/12 05:28:38;;;;;;;18.40;11.23;;;12.10;90.80;;;;;;4982213;28;20029;-82
2023/05/12 05:31:04;;;;;;;18.92;11.48;;;12.20;90.80;;;;;;5001899;28;20125;-82
2023/05/12 05:33:31;;;;;;;22.55;13.50;;;12.10;90.60;;;;;;4971331;28;20104;-82
2023/05/12 05:35:56;;;;;;;18.63;13.02;;;12.10;90.80;;;;;;5000927;28;20053;-83
2023/05/12 05:38:22;;;;;;;22.42;12.98;;;12.10;91.00;;;;;;4986874;28;20086;-81
2023/05/12 05:40:48;;;;;;;21.10;12.98;;;12.10;91.00;;;;;;5000433;28;20378;-84
2023/05/12 05:43:14;;;;;;;20.95;13.55;;;12.10;90.90;;;;;;4991992;28;20550;-84
2023/05/12 05:45:40;;;;;;;21.45;13.05;;;12.10;91.00;;;;;;4993263;28;20109;-83
2023/05/12 05:48:05;;;;;;;22.17;13.65;;;12.10;91.00;;;;;;4991964;28;20077;-83
2023/05/12 05:50:41;;;;;;;19.75;13.45;;;12.10;91.20;;;;;;4986242;28;20038;-79
2023/05/12 05:53:07;;;;;;;20.92;13.15;;;12.10;91.10;;;;;;4984553;28;20359;-78
2023/05/12 05:55:33;;;;;;;18.25;13.18;;;12.10;91.00;;;;;;5000195;28;20515;-80
2023/05/12 05:57:58;;;;;;;22.23;14.27;;;12.10;91.10;;;;;;4984841;28;20112;-81
2023/05/12 06:00:24;;;;;;;26.38;15.40;;;12.00;91.00;;;;;;5000376;28;20473;-80
2023/05/12 06:02:50;;;;;;;20.02;14.63;;;11.90;91.10;;;;;;4999174;28;20058;-79
2023/05/12 06:05:15;;;;;;;23.73;14.75;;;11.90;91.30;;;;;;4981547;28;20077;-81
2023/05/12 06:07:41;;;;;;;23.10;15.50;;;11.90;91.30;;;;;;4982339;28;20065;-79
2023/05/12 06:10:07;;;;;;;23.55;15.93;;;11.80;91.20;;;;;;4982761;28;20038;-80
2023/05/12 06:12:33;;;;;;;22.85;15.05;;;11.80;91.30;;;;;;4998622;28;20096;-80
2023/05/12 06:14:59;;;;;;;22.17;15.25;;;11.80;91.30;;;;;;5001283;28;20010;-80
2023/05/12 06:17:24;;;;;;;24.13;14.80;;;11.80;91.30;;;;;;4980990;28;20130;-80
2023/05/12 06:19:50;;;;;;;22.88;14.57;;;11.80;91.40;;;;;;4994092;28;20030;-79
2023/05/12 06:22:16;;;;;;;25.85;14.57;;;11.80;91.40;;;;;;4983846;28;20088;-79
2023/05/12 06:24:41;;;;;;;24.08;14.50;;;11.80;91.30;;;;;;4997873;28;20116;-81
2023/05/12 06:27:07;;;;;;;25.00;14.30;;;11.80;91.30;;;;;;4979036;28;20038;-81
2023/05/12 06:29:33;;;;;;;25.17;13.43;;;11.70;91.30;;;;;;4983138;28;20414;-81
2023/05/12 06:31:59;;;;;;;20.90;13.30;;;11.70;91.30;;;;;;4981796;28;20113;-79
2023/05/12 06:34:25;;;;;;;22.23;13.40;;;11.70;91.50;;;;;;4982998;28;20125;-80
2023/05/12 06:36:51;;;;;;;21.95;12.52;;;11.70;91.50;;;;;;4983973;28;20046;-79
2023/05/12 06:39:17;;;;;;;21.13;12.90;;;11.70;91.50;;;;;;4983498;28;20038;-80
2023/05/12 06:41:42;;;;;;;21.38;12.77;;;11.60;91.70;;;;;;4980095;28;20061;-79
2023/05/12 06:44:11;;;;;;;20.98;11.48;;;11.70;91.90;;;;;;4984276;28;20077;-79
2023/05/12 06:46:40;;;;;;;17.77;11.77;;;11.60;91.90;;;;;;4998843;28;20442;-79
2023/05/12 06:49:07;;;;;;;18.02;11.57;;;11.70;91.90;;;;;;4978542;28;20037;-79
2023/05/12 06:51:32;;;;;;;21.80;12.38;;;11.70;91.80;;;;;;4982472;28;20306;-78
2023/05/12 06:53:59;;;;;;;20.38;12.05;;;11.80;91.90;;;;;;4981717;28;20530;-81
2023/05/12 06:56:25;;;;;;;18.23;9.70;;;11.70;91.90;;;;;;4994166;28;20137;-81
2023/05/12 06:58:51;;;;;;;16.25;8.70;;;11.60;92.00;;;;;;5000951;28;20056;-82
2023/05/12 07:01:17;;;;;;;14.55;8.40;;;11.60;91.90;;;;;;5011702;28;20050;-81
2023/05/12 07:03:42;;;;;;;15.65;9.50;;;11.60;91.80;;;;;;5026649;28;20033;-78
2023/05/12 07:06:08;;;;;;;16.95;8.20;;;11.60;92.10;;;;;;5019307;28;20042;-81
2023/05/12 07:08:34;;;;;;;15.30;8.32;;;11.60;92.10;;;;;;5008086;28;20042;-82
2023/05/12 07:11:00;;;;;;;15.82;7.90;;;11.60;92.10;;;;;;5001265;28;20029;-82
2023/05/12 07:13:26;;;;;;;11.85;7.15;;;11.60;92.00;;;;;;5001526;28;20045;-81
2023/05/12 07:15:52;;;;;;;17.90;8.43;;;11.60;92.00;;;;;;5000426;28;20034;-81
2023/05/12 07:18:18;;;;;;;13.25;7.57;;;11.60;92.00;;;;;;4984809;28;20097;-80
2023/05/12 07:20:45;;;;;;;13.80;8.27;;;11.60;92.00;;;;;;5003632;28;20026;-81
2023/05/12 07:23:11;;;;;;;14.75;7.90;;;11.60;92.10;;;;;;5003883;28;20133;-79
2023/05/12 07:25:38;;;;;;;11.40;7.32;;;11.60;92.00;;;;;;5000894;28;20428;-80
2023/05/12 07:28:04;;;;;;;16.15;7.85;;;11.60;92.00;;;;;;5002974;28;20033;-80
2023/05/12 07:30:29;;;;;;;10.82;7.28;;;11.60;92.10;;;;;;5000971;28;20025;-80
2023/05/12 07:32:56;;;;;;;10.95;7.05;;;11.60;92.00;;;;;;5004261;28;20375;-77
2023/05/12 07:35:22;;;;;;;10.23;6.18;;;11.60;92.00;;;;;;5002106;28;20037;-80
2023/05/12 07:37:48;;;;;;;11.23;6.05;;;11.60;92.00;;;;;;5000641;28;20485;-81
2023/05/12 07:40:14;;;;;;;9.73;5.82;;;11.60;92.30;;;;;;5003162;28;20437;-81
2023/05/12 07:42:40;;;;;;;10.38;6.43;;;11.60;92.40;;;;;;5003893;28;20425;-81
2023/05/12 07:45:06;;;;;;;12.98;6.53;;;11.60;92.40;;;;;;4997074;28;20633;-80
2023/05/12 07:47:32;;;;;;;11.65;6.18;;;11.50;92.50;;;;;;5002617;28;20030;-82
2023/05/12 07:49:58;;;;;;;11.50;5.82;;;11.50;92.50;;;;;;5003182;28;20098;-80
2023/05/12 07:52:24;;;;;;;12.25;5.53;;;11.50;92.60;;;;;;5001625;28;20046;-81
2023/05/12 07:54:49;;;;;;;8.80;4.47;;;11.60;92.80;;;;;;5003903;28;20037;-81
2023/05/12 07:57:15;;;;;;;10.07;5.05;;;11.60;92.80;;;;;;5002952;28;20482;-81
2023/05/12 07:59:41;;;;;;;11.65;4.55;;;11.50;92.80;;;;;;4999658;28;20030;-83
2023/05/12 08:02:07;;;;;;;7.95;4.07;;;11.50;92.90;;;;;;5001093;28;20049;-82
2023/05/12 08:04:33;;;;;;;10.63;4.75;;;11.40;92.90;;;;;;5002111;28;20045;-83
2023/05/12 08:06:59;;;;;;;10.48;4.70;;;11.50;93.20;;;;;;5000861;28;20046;-83
2023/05/12 08:09:25;;;;;;;9.43;4.53;;;11.50;93.20;;;;;;4999764;28;20033;-81
2023/05/12 08:11:51;;;;;;;8.93;4.28;;;11.50;93.20;;;;;;5002034;28;20038;-81
2023/05/12 08:14:16;;;;;;;11.45;5.00;;;11.60;93.10;;;;;;5005164;28;20030;-81
2023/05/12 08:16:45;;;;;;;9.88;4.50;;;11.60;93.20;;;;;;5000587;28;20068;-81
2023/05/12 08:19:12;;;;;;;10.32;4.95;;;11.60;93.20;;;;;;5003883;28;20029;-81
2023/05/12 08:21:39;;;;;;;9.80;5.05;;;11.60;93.30;;;;;;5002003;28;20437;-79
2023/05/12 08:24:05;;;;;;;9.20;4.97;;;11.60;93.40;;;;;;5000713;28;20536;-79
2023/05/12 08:26:31;;;;;;;10.73;5.40;;;11.70;93.40;;;;;;4984674;28;20529;-81
2023/05/12 08:28:56;;;;;;;13.35;6.57;;;11.80;93.50;;;;;;5001332;28;20029;-80
2023/05/12 08:31:22;;;;;;;10.00;5.82;;;11.80;93.40;;;;;;4984723;28;20041;-81
2023/05/12 08:33:48;;;;;;;12.52;7.72;;;11.90;93.50;;;;;;5001697;28;20164;-82
2023/05/12 08:36:13;;;;;;;12.07;6.97;;;11.80;93.40;;;;;;4996453;28;20541;-81
2023/05/12 08:38:39;;;;;;;12.07;7.97;;;11.90;93.40;;;;;;4984286;28;20033;-82
2023/05/12 08:41:05;;;;;;;13.57;8.50;;;11.90;93.50;;;;;;5001466;28;20486;-81
2023/05/12 08:43:43;;;;;;;16.13;9.82;;;11.90;93.50;;;;;;4999617;28;20080;-82
2023/05/12 08:46:10;;;;;;;18.33;10.20;;;12.00;93.50;;;;;;4998354;28;20072;-81
2023/05/12 08:48:38;;;;;;;18.08;10.98;;;12.10;93.60;;;;;;5002674;28;20030;-81
2023/05/12 08:51:09;;;;;;;17.63;10.70;;;12.10;93.70;;;;;;4996451;28;20049;-80
2023/05/12 08:53:36;;;;;;;18.92;10.68;;;12.20;93.70;;;;;;5001242;28;20029;-82
2023/05/12 08:56:05;;;;;;;15.57;10.13;;;12.30;93.70;;;;;;5002430;28;20562;-81
2023/05/12 08:58:32;;;;;;;19.75;11.40;;;12.40;93.70;;;;;;5000011;28;20026;-81
2023/05/12 09:01:03;;;;;;;19.02;10.50;;;12.40;93.70;;;;;;4998082;28;20038;-82
2023/05/12 09:03:30;;;;;;;17.60;11.25;;;12.40;93.60;;;;;;5001243;28;20038;-81
2023/05/12 09:06:00;;;;;;;20.05;12.00;;;12.50;93.70;;;;;;4999276;28;20084;-80
2023/05/12 09:08:29;;;;;;;21.67;13.15;;;12.50;93.50;;;;;;5000796;28;20042;-81
2023/05/12 09:10:57;;;;;;;21.17;14.10;;;12.60;93.70;;;;;;5000710;28;20025;-81
2023/05/12 09:13:39;;;;;;;26.35;15.00;;;12.60;93.70;;;;;;5001068;28;20029;-80
2023/05/12 09:16:10;;;;;;;22.65;15.25;;;12.60;93.60;;;;;;4996257;28;20134;-81
2023/05/12 09:18:53;;;;;;;28.98;16.33;;;12.70;93.60;;;;;;4998353;28;20057;-83
2023/05/12 09:21:20;;;;;;;29.35;17.25;;;12.70;93.70;;;;;;4999549;28;20104;-80
2023/05/12 09:23:57;;;;;;;29.00;18.23;;;12.80;93.70;;;;;;5002677;28;20136;-82
2023/05/12 09:26:24;;;;;;;28.55;17.50;;;12.90;93.70;;;;;;5000574;28;20528;-82
2023/05/12 09:28:53;;;;;;;34.00;20.92;;;12.90;93.70;;;;;;5002276;28;20038;-82
2023/05/12 09:31:23;;;;;;;34.22;23.20;;;12.90;93.60;;;;;;4992168;28;20062;-81
2023/05/12 09:33:50;;;;;;;39.75;26.08;;;13.00;93.80;;;;;;4996047;28;20131;-80
2023/05/12 09:36:18;;;;;;;41.10;25.90;;;13.10;93.60;;;;;;4988284;28;20573;-80
2023/05/12 09:38:43;;;;;;;43.28;28.55;;;13.20;93.60;;;;;;5000311;28;20029;-80
2023/05/12 09:41:09;;;;;;;46.03;31.08;;;13.30;93.60;;;;;;4999882;28;20076;-79
2023/05/12 09:43:35;;;;;;;45.10;29.65;;;13.30;93.50;;;;;;4983328;28;20033;-81
2023/05/12 09:46:05;;;;;;;47.45;32.33;;;13.40;93.50;;;;;;4998558;28;20054;-82
2023/05/12 09:48:31;;;;;;;46.53;33.10;;;13.50;93.40;;;;;;4979763;28;20049;-82
2023/05/12 09:50:57;;;;;;;45.33;32.45;;;13.60;93.10;;;;;;4981121;28;20040;-82
2023/05/12 09:53:23;;;;;;;48.10;35.78;;;13.60;93.10;;;;;;5003353;28;20060;-80
2023/05/12 09:55:49;;;;;;;51.53;37.70;;;13.70;92.90;;;;;;5001428;28;20061;-79
2023/05/12 09:58:19;;;;;;;48.78;35.55;;;13.70;93.00;;;;;;4999347;28;20026;-81
2023/05/12 10:00:45;;;;;;;51.67;36.35;;;13.70;92.70;;;;;;5002194;28;20103;-80
2023/05/12 10:03:14;;;;;;;52.72;37.47;;;13.70;93.00;;;;;;5003061;28;20479;-81
2023/05/12 10:05:56;;;;;;;53.08;38.20;;;13.90;92.80;;;;;;5000527;28;20077;-79
2023/05/12 10:08:31;;;;;;;62.05;44.88;;;14.10;92.70;;;;;;5000525;28;20041;-80
2023/05/12 10:10:59;;;;;;;53.63;38.80;;;14.20;92.40;;;;;;5000978;28;20053;-77
2023/05/12 10:13:25;;;;;;;59.78;44.42;;;14.30;92.20;;;;;;5000717;28;20463;-80
2023/05/12 10:15:55;;;;;;;66.68;47.08;;;14.50;92.00;;;;;;5001265;28;20026;-81
2023/05/12 10:18:22;;;;;;;48.38;39.25;;;14.60;91.80;;;;;;5003784;28;20057;-81
2023/05/12 10:20:48;;;;;;;50.20;39.53;;;14.60;91.60;;;;;;5000598;28;20022;-78
2023/05/12 10:23:16;;;;;;;51.63;39.58;;;14.70;91.60;;;;;;4999249;28;20022;-80
2023/05/12 10:25:43;;;;;;;48.90;38.08;;;14.60;91.20;;;;;;5002246;28;20030;-81
2023/05/12 10:28:09;;;;;;;49.97;40.10;;;14.80;91.30;;;;;;5001984;28;20018;-79
2023/05/12 10:30:37;;;;;;;49.65;39.92;;;14.90;91.00;;;;;;5004264;28;20033;-80
2023/05/12 10:33:04;;;;;;;49.45;40.30;;;14.90;90.90;;;;;;5003005;28;20038;-79
2023/05/12 10:35:34;;;;;;;48.15;40.58;;;14.80;90.40;;;;;;4997103;28;20093;-78
2023/05/12 10:38:11;;;;;;;52.38;41.97;;;14.90;90.80;;;;;;5002550;28;20100;-78
2023/05/12 10:40:59;;;;;;;48.70;39.25;;;15.10;90.70;;;;;;4997363;28;20332;-78
2023/05/12 10:43:44;;;;;;;49.17;40.17;;;15.10;89.80;;;;;;5001775;28;20038;-79
2023/05/12 10:46:19;;;;;;;46.88;40.72;;;15.30;89.90;;;;;;5003073;28;20030;-78
2023/05/12 10:49:11;;;;;;;47.45;40.53;;;15.50;89.40;;;;;;5003216;28;20062;-80
2023/05/12 10:51:43;;;;;;;41.15;35.80;;;15.80;89.20;;;;;;4995065;28;20069;-81
2023/05/12 10:54:10;;;;;;;35.92;32.13;;;16.00;87.50;;;;;;4986145;28;20026;-78
2023/05/12 10:56:35;;;;;;;33.03;29.33;;;16.10;85.50;;;;;;5002326;28;20041;-76
2023/05/12 10:59:16;;;;;;;34.22;30.50;;;15.80;85.50;;;;;;4984515;28;20034;-77
2023/05/12 11:01:58;;;;;;;35.38;31.50;;;16.10;85.60;;;;;;5002118;28;20057;-75
2023/05/12 11:04:36;;;;;;;35.00;31.27;;;16.30;85.70;;;;;;5003830;28;20475;-75
2023/05/12 11:07:03;;;;;;;32.58;29.10;;;16.30;84.80;;;;;;5000290;28;20038;-75
2023/05/12 11:09:29;;;;;;;34.33;30.80;;;16.70;84.60;;;;;;5004637;28;20073;-77
2023/05/12 11:11:57;;;;;;;28.67;25.67;;;17.00;84.20;;;;;;4998484;28;20050;-80
2023/05/12 11:14:24;;;;;;;25.83;22.65;;;17.20;82.30;;;;;;5003374;28;20063;-78
2023/05/12 11:16:49;;;;;;;24.98;22.20;;;17.30;81.00;;;;;;5000288;28;20079;-77
2023/05/12 11:19:17;;;;;;;24.48;21.88;;;17.50;80.10;;;;;;4985534;28;20018;-77
2023/05/12 11:21:43;;;;;;;23.20;20.73;;;17.60;79.80;;;;;;4984387;28;20582;-77
2023/05/12 11:24:09;;;;;;;23.80;20.75;;;17.60;79.10;;;;;;5000505;28;20032;-79
2023/05/12 11:26:35;;;;;;;21.27;19.00;;;17.60;79.60;;;;;;5001809;28;20041;-77
2023/05/12 11:29:03;;;;;;;23.23;18.55;;;17.90;79.20;;;;;;4980404;28;20044;-77
2023/05/12 11:31:29;;;;;;;22.00;19.08;;;17.90;77.80;;;;;;5004076;28;20048;-77
2023/05/12 11:34:07;;;;;;;19.17;17.10;;;18.20;77.90;;;;;;5003860;28;20021;-79
2023/05/12 11:36:41;;;;;;;19.58;16.77;;;18.50;76.40;;;;;;4994710;28;20277;-77
2023/05/12 11:39:16;;;;;;;17.55;14.38;;;18.30;76.00;;;;;;5001258;28;20030;-78
2023/05/12 11:41:43;;;;;;;18.67;14.30;;;18.30;76.00;;;;;;5001930;28;20061;-79
2023/05/12 11:44:16;;;;;;;17.15;14.63;;;18.40;75.00;;;;;;5002028;28;20425;-79
2023/05/12 11:46:56;;;;;;;15.60;13.10;;;18.50;75.90;;;;;;4998935;28;20034;-78
2023/05/12 11:49:22;;;;;;;18.73;13.80;;;18.30;74.20;;;;;;4999041;28;20062;-76
2023/05/12 11:51:54;;;;;;;15.30;12.85;;;18.10;77.30;;;;;;4983399;28;20105;-76
2023/05/12 11:54:20;;;;;;;16.10;12.85;;;17.80;78.40;;;;;;4984157;28;20558;-75
2023/05/12 11:56:48;;;;;;;16.95;13.98;;;17.60;79.80;;;;;;5002089;28;20038;-76
2023/05/12 11:59:31;;;;;;;17.02;13.40;;;17.50;80.40;;;;;;4998628;28;20065;-78
2023/05/12 12:02:02;;;;;;;15.65;13.20;;;17.20;80.80;;;;;;5000556;28;20136;-76
2023/05/12 12:04:41;;;;;;;15.00;12.20;;;17.00;81.40;;;;;;4981782;28;20309;-78
2023/05/12 12:07:08;;;;;;;17.30;14.52;;;17.00;81.30;;;;;;4994033;28;20067;-76
2023/05/12 12:09:35;;;;;;;19.05;15.90;;;16.80;82.90;;;;;;5001917;28;20475;-76
2023/05/12 12:12:03;;;;;;;23.73;21.23;;;16.90;82.50;;;;;;5001347;28;20077;-77
2023/05/12 12:14:30;;;;;;;24.15;21.65;;;16.70;82.80;;;;;;5004221;28;20025;-75
2023/05/12 12:16:56;;;;;;;24.20;21.80;;;16.50;82.80;;;;;;5000362;28;20403;-75
2023/05/12 12:19:22;;;;;;;24.02;21.58;;;16.40;83.70;;;;;;5001689;28;20038;-77
2023/05/12 12:21:48;;;;;;;22.30;19.05;;;16.40;84.20;;;;;;4999512;28;20034;-78
2023/05/12 12:24:14;;;;;;;20.85;17.88;;;16.20;84.80;;;;;;5004101;28;20030;-75
2023/05/12 12:26:39;;;;;;;20.58;18.38;;;16.10;84.80;;;;;;4999286;28;20042;-75
2023/05/12 12:29:05;;;;;;;25.48;20.92;;;16.30;85.90;;;;;;4985372;28;20533;-77